createdAt,value
2023-08-27T00:05:14.777Z,14.40
2023-08-27T00:29:49.609Z,14.04
2023-08-27T00:32:25.317Z,14.30
2023-08-27T00:47:07.076Z,14.68
2023-08-27T00:49:34.449Z,14.34
2023-08-27T00:52:03.417Z,14.60
2023-08-27T00:54:31.469Z,14.20
2023-08-27T01:20:50.750Z,14.80
2023-08-27T01:23:18.388Z,14.43
2023-08-27T01:32:58.608Z,14.77
2023-08-27T01:35:26.893Z,14.15
2023-08-27T01:47:25.692Z,14.34
2023-08-27T01:49:53.372Z,14.28
2023-08-27T01:59:08.274Z,14.08
2023-08-27T02:28:29.621Z,14.10
2023-08-27T02:37:46.301Z,14.26
2023-08-27T02:49:41.413Z,15.03
2023-08-27T02:52:10.329Z,14.51
2023-08-27T02:54:37.796Z,14.78
2023-08-27T02:57:12.072Z,15.08
2023-08-27T02:59:39.574Z,14.58
2023-08-27T03:14:59.665Z,14.89
2023-08-27T03:17:27.095Z,15.31
2023-08-27T03:19:54.562Z,15.36
2023-08-27T03:27:36.705Z,15.48
2023-08-27T03:30:08.538Z,15.19
2023-08-27T03:32:36.784Z,15.11
2023-08-27T03:35:04.661Z,14.95
2023-08-27T03:37:32.265Z,15.17
2023-08-27T03:40:01.482Z,14.81
2023-08-27T03:42:33.129Z,15.28
2023-08-27T03:45:04.387Z,14.97
2023-08-27T03:47:32.381Z,14.98
2023-08-27T03:49:59.588Z,14.98
2023-08-27T03:52:27.144Z,15.37
2023-08-27T04:04:23.528Z,14.89
2023-08-27T05:32:49.826Z,15.83
2023-08-27T05:40:56.844Z,16.10
2023-08-27T05:43:25.494Z,15.81
2023-08-27T05:45:52.791Z,15.82
2023-08-27T05:48:20.309Z,16.25
2023-08-27T05:50:47.936Z,15.71
2023-08-27T05:53:16.806Z,15.70
2023-08-27T05:55:45.716Z,16.13
2023-08-27T05:58:13.224Z,15.96
2023-08-27T06:00:40.474Z,15.97
2023-08-27T06:03:07.864Z,16.21
2023-08-27T06:05:35.878Z,16.18
2023-08-27T06:08:08.074Z,16.69
2023-08-27T06:10:36.181Z,16.19
2023-08-27T06:13:04.826Z,16.22
2023-08-27T06:15:35.858Z,16.23
2023-08-27T06:18:04.698Z,16.73
2023-08-27T06:20:33.253Z,16.48
2023-08-27T06:23:07.013Z,16.38
2023-08-27T06:25:36.271Z,16.40
2023-08-27T06:28:05.543Z,16.85
2023-08-27T06:30:33.654Z,16.79
2023-08-27T06:33:04.889Z,16.61
2023-08-27T06:35:33.660Z,17.00
2023-08-27T06:46:55.964Z,17.08
2023-08-27T06:50:39.828Z,17.59
2023-08-27T06:54:25.195Z,17.51
2023-08-27T06:56:52.701Z,17.04
2023-08-27T06:59:47.916Z,17.44
2023-08-27T07:06:30.376Z,17.43
2023-08-27T07:08:57.948Z,17.46
2023-08-27T07:12:22.189Z,17.83
2023-08-27T07:31:50.153Z,17.83
2023-08-27T07:34:43.716Z,17.96
2023-08-27T07:37:14.895Z,17.92
2023-08-27T07:40:10.773Z,17.92
2023-08-27T08:55:27.597Z,18.67
2023-08-27T08:58:03.522Z,18.87
2023-08-27T09:00:32.340Z,18.88
2023-08-27T09:03:04.550Z,19.18
2023-08-27T09:05:39.503Z,19.60
2023-08-27T09:11:29.261Z,19.86
2023-08-27T10:18:01.332Z,19.87
2023-08-27T10:58:48.116Z,20.33
2023-08-27T11:01:23.214Z,20.71
2023-08-27T11:04:03.575Z,20.44
2023-08-27T11:19:46.850Z,20.95
2023-08-27T11:22:20.948Z,20.48
2023-08-27T12:31:54.068Z,21.66
2023-08-27T12:37:33.060Z,22.29
2023-08-27T12:51:20.472Z,21.99
2023-08-27T12:54:07.204Z,22.58
2023-08-27T12:57:07.054Z,22.03
2023-08-27T13:02:48.141Z,21.66
2023-08-27T13:05:29.705Z,21.62
2023-08-27T13:08:03.366Z,21.79
2023-08-27T13:10:44.905Z,21.86
2023-08-27T13:13:17.021Z,22.07
2023-08-27T13:15:44.708Z,21.91
2023-08-27T13:18:14.728Z,21.63
2023-08-27T13:20:42.512Z,21.92
2023-08-27T13:23:10.793Z,22.51
2023-08-27T13:25:45.523Z,22.35
2023-08-27T13:28:15.242Z,21.99
2023-08-27T13:30:42.800Z,22.09
2023-08-27T13:33:31.379Z,22.08
2023-08-27T13:36:04.803Z,21.84
2023-08-27T13:38:33.527Z,21.74
2023-08-27T13:41:01.152Z,21.39
2023-08-27T13:43:33.120Z,21.65
2023-08-27T13:46:06.269Z,21.50
2023-08-27T13:48:36.668Z,21.81
2023-08-27T13:51:08.254Z,21.65
2023-08-27T13:53:38.313Z,20.92
2023-08-27T14:00:31.535Z,21.00
2023-08-27T14:02:59.029Z,21.29
2023-08-27T14:05:27.013Z,21.19
2023-08-27T14:07:55.112Z,22.01
2023-08-27T14:10:25.529Z,21.80
2023-08-27T14:12:59.563Z,21.69
2023-08-27T14:15:33.088Z,21.81
2023-08-27T14:18:01.153Z,21.01
2023-08-27T14:20:30.449Z,21.09
2023-08-27T14:22:58.709Z,21.16
2023-08-27T14:25:30.208Z,21.59
2023-08-27T14:27:58.037Z,21.69
2023-08-27T14:30:37.759Z,21.16
2023-08-27T14:33:46.855Z,21.12
2023-08-27T14:36:59.448Z,21.19
2023-08-27T14:39:43.249Z,20.97
2023-08-27T14:42:17.668Z,20.99
2023-08-27T14:45:07.914Z,21.22
2023-08-27T14:47:57.973Z,20.66
2023-08-27T14:50:35.495Z,20.55
2023-08-27T14:58:56.916Z,20.56
2023-08-27T15:27:08.050Z,19.84
2023-08-27T15:30:55.942Z,19.27
2023-08-27T15:34:11.024Z,19.76
2023-08-27T16:18:34.593Z,20.02
2023-08-27T16:24:36.453Z,20.08
2023-08-27T16:31:28.348Z,19.80
2023-08-27T16:53:30.742Z,18.85
2023-08-27T16:58:50.186Z,18.81
2023-08-27T17:01:20.318Z,18.63
2023-08-27T17:03:50.284Z,18.97
2023-08-27T17:06:17.685Z,18.89
2023-08-27T17:08:45.328Z,18.97
2023-08-27T17:11:35.861Z,18.62
2023-08-27T17:14:07.789Z,18.77
2023-08-27T17:16:41.133Z,18.96
2023-08-27T17:19:14.285Z,18.88
2023-08-27T17:21:48.071Z,18.90
2023-08-27T17:24:17.518Z,18.94
2023-08-27T17:26:45.000Z,18.57
2023-08-27T17:29:12.710Z,18.64
2023-08-27T17:31:40.267Z,18.98
2023-08-27T17:34:37.852Z,18.96
2023-08-27T17:37:08.432Z,18.54
2023-08-27T17:39:36.073Z,18.48
2023-08-27T17:42:08.865Z,18.71
2023-08-27T17:44:39.551Z,18.42
2023-08-27T17:47:10.637Z,18.80
2023-08-27T17:49:41.944Z,18.87
2023-08-27T17:52:13.474Z,18.59
2023-08-27T17:54:45.177Z,18.69
2023-08-27T17:57:20.429Z,18.35
2023-08-27T17:59:55.272Z,18.29
2023-08-27T18:02:24.348Z,18.55
2023-08-27T18:04:54.712Z,18.42
2023-08-27T18:07:25.378Z,18.29
2023-08-27T18:14:26.598Z,18.44
2023-08-27T18:16:54.467Z,18.43
2023-08-27T18:19:21.845Z,18.42
2023-08-27T18:21:53.798Z,18.70
2023-08-27T18:26:24.569Z,18.68
2023-08-27T18:28:54.811Z,18.36
2023-08-27T18:31:22.353Z,18.36
2023-08-27T18:33:50.348Z,18.54
2023-08-27T18:36:18.082Z,18.20
2023-08-27T18:38:45.608Z,18.16
2023-08-27T18:41:13.223Z,17.95
2023-08-27T18:44:32.468Z,18.48
2023-08-27T18:46:59.756Z,18.43
2023-08-27T18:49:27.158Z,18.07
2023-08-27T18:51:57.577Z,18.01
2023-08-27T18:55:15.952Z,18.27
2023-08-27T18:57:15.440Z,17.78
2023-08-27T18:59:42.915Z,17.86
2023-08-27T19:07:16.517Z,17.68
2023-08-27T19:09:47.064Z,18.00
2023-08-27T19:17:12.550Z,18.23
2023-08-27T19:24:28.887Z,18.20
2023-08-27T19:26:56.517Z,17.83
2023-08-27T19:38:29.197Z,18.09
2023-08-27T19:50:26.893Z,17.69
2023-08-27T19:54:57.829Z,18.07
2023-08-27T19:57:28.259Z,17.55
2023-08-27T19:59:55.680Z,17.72
2023-08-27T20:02:31.851Z,17.85
2023-08-27T20:04:59.315Z,17.66
2023-08-27T20:07:28.203Z,17.90
2023-08-27T20:10:01.498Z,17.75
2023-08-27T20:12:31.708Z,17.68
2023-08-27T20:14:59.148Z,17.93
2023-08-27T20:17:51.599Z,17.94
2023-08-27T20:20:19.209Z,17.76
2023-08-27T20:22:46.513Z,17.64
2023-08-27T20:25:13.777Z,17.46
2023-08-27T20:32:30.401Z,17.76
2023-08-27T20:37:21.061Z,17.42
2023-08-27T20:39:50.842Z,17.19
2023-08-27T20:42:18.149Z,17.12
2023-08-27T20:44:47.104Z,16.97
2023-08-27T21:15:42.420Z,17.42
2023-08-27T21:18:10.253Z,16.95
2023-08-27T21:20:37.535Z,17.12
2023-08-27T21:23:05.115Z,17.22
2023-08-27T21:25:32.338Z,17.34
2023-08-27T21:27:59.625Z,17.00
2023-08-27T21:30:52.957Z,17.35
2023-08-27T21:38:05.231Z,17.28
2023-08-27T21:40:39.879Z,17.05
2023-08-27T21:47:37.738Z,17.14
2023-08-27T21:50:05.891Z,16.81
2023-08-27T21:52:33.277Z,16.94
2023-08-27T21:55:00.856Z,17.19
2023-08-27T22:01:59.384Z,16.53
2023-08-27T22:04:27.714Z,17.02
2023-08-27T22:06:54.919Z,16.89
2023-08-27T22:09:24.181Z,16.61
2023-08-27T22:11:54.625Z,16.86
2023-08-27T22:14:21.833Z,16.92
2023-08-27T22:16:49.256Z,16.96
2023-08-27T22:19:23.850Z,16.90
2023-08-27T22:21:51.781Z,16.44
2023-08-27T22:37:58.217Z,16.57
2023-08-27T22:44:51.639Z,15.90
2023-08-27T22:47:18.790Z,15.92
2023-08-27T22:49:45.933Z,16.10
2023-08-27T22:52:13.187Z,15.79
2023-08-27T22:59:19.046Z,15.70
2023-08-27T23:01:46.355Z,15.92
2023-08-27T23:04:13.500Z,16.27
2023-08-27T23:10:59.550Z,15.67
2023-08-27T23:18:22.422Z,16.30
2023-08-27T23:25:20.174Z,16.02
2023-08-27T23:27:47.482Z,15.77
2023-08-27T23:30:15.180Z,16.07
2023-08-27T23:37:17.841Z,15.69
2023-08-27T23:39:44.994Z,15.81
2023-08-27T23:46:45.777Z,15.73
2023-08-27T23:49:15.531Z,15.73
2023-08-27T23:56:14.240Z,15.79
2023-08-27T23:58:41.505Z,15.60
